createdAt,value
2023-05-05T00:02:16.107Z,5.00
2023-05-05T00:04:43.550Z,5.10
2023-05-05T00:07:10.832Z,4.53
2023-05-05T00:09:38.168Z,5.07
2023-05-05T00:12:05.937Z,5.07
2023-05-05T00:14:33.602Z,4.77
2023-05-05T00:17:01.274Z,4.63
2023-05-05T00:19:28.852Z,4.97
2023-05-05T00:21:56.509Z,5.10
2023-05-05T00:24:23.849Z,4.80
2023-05-05T00:26:51.288Z,4.77
2023-05-05T00:29:18.592Z,4.70
2023-05-05T00:31:46.107Z,4.33
2023-05-05T00:34:13.398Z,5.13
2023-05-05T00:36:41.388Z,5.40
2023-05-05T00:39:09.982Z,4.63
2023-05-05T00:41:37.460Z,5.10
2023-05-05T00:44:05.244Z,5.00
2023-05-05T00:46:34.790Z,5.47
2023-05-05T00:49:02.578Z,4.90
2023-05-05T00:51:30.038Z,5.00
2023-05-05T00:53:57.467Z,5.43
2023-05-05T00:56:27.515Z,5.20
2023-05-05T00:58:55.301Z,5.60
2023-05-05T01:01:23.119Z,5.30
2023-05-05T01:03:50.494Z,5.63
2023-05-05T01:06:36.707Z,5.30
2023-05-05T01:09:24.334Z,4.90
2023-05-05T01:12:19.588Z,5.50
2023-05-05T01:14:58.735Z,5.10
2023-05-05T01:17:37.182Z,5.23
2023-05-05T01:20:17.031Z,5.70
2023-05-05T01:22:49.144Z,6.43
2023-05-05T01:25:38.455Z,5.00
2023-05-05T01:28:39.515Z,5.43
2023-05-05T01:31:32.698Z,5.67
2023-05-05T01:34:04.226Z,5.57
2023-05-05T01:36:38.204Z,5.60
2023-05-05T01:39:09.590Z,5.23
2023-05-05T01:41:43.932Z,5.87
2023-05-05T01:44:13.491Z,6.13
2023-05-05T01:46:40.803Z,5.63
2023-05-05T01:49:11.593Z,6.23
2023-05-05T01:51:40.944Z,6.27
2023-05-05T01:54:09.456Z,6.23
2023-05-05T01:56:40.196Z,5.73
2023-05-05T01:59:10.342Z,5.27
2023-05-05T02:01:41.796Z,5.40
2023-05-05T02:04:10.483Z,5.43
2023-05-05T02:06:40.175Z,5.57
2023-05-05T02:09:11.798Z,5.97
2023-05-05T02:11:40.932Z,5.60
2023-05-05T02:14:10.007Z,5.23
2023-05-05T02:16:38.809Z,5.23
2023-05-05T02:19:07.112Z,5.40
2023-05-05T02:21:34.889Z,5.40
2023-05-05T02:24:02.985Z,5.60
2023-05-05T02:26:32.077Z,6.23
2023-05-05T02:29:12.784Z,6.20
2023-05-05T02:31:46.703Z,6.10
2023-05-05T02:34:21.970Z,6.33
2023-05-05T02:36:53.411Z,5.57
2023-05-05T02:39:30.994Z,5.40
2023-05-05T02:42:05.553Z,5.83
2023-05-05T02:44:35.784Z,7.17
2023-05-05T02:47:04.979Z,5.90
2023-05-05T02:49:33.248Z,5.67
2023-05-05T02:52:01.219Z,6.07
2023-05-05T02:54:33.681Z,6.40
2023-05-05T02:57:04.427Z,6.00
2023-05-05T02:59:56.700Z,5.77
2023-05-05T03:02:51.777Z,6.13
2023-05-05T03:05:31.222Z,5.30
2023-05-05T03:08:04.133Z,5.60
2023-05-05T03:10:42.229Z,5.93
2023-05-05T03:13:11.477Z,5.90
2023-05-05T03:15:46.542Z,5.90
2023-05-05T03:18:17.785Z,5.47
2023-05-05T03:20:51.721Z,5.30
2023-05-05T03:23:21.029Z,6.10
2023-05-05T03:25:51.753Z,6.27
2023-05-05T03:28:32.195Z,7.10
2023-05-05T03:31:04.103Z,6.20
2023-05-05T03:33:33.510Z,6.10
2023-05-05T03:36:01.755Z,6.20
2023-05-05T03:38:29.317Z,6.00
2023-05-05T03:40:56.711Z,5.70
2023-05-05T03:43:26.766Z,6.30
2023-05-05T03:45:54.253Z,5.33
2023-05-05T03:48:22.860Z,5.60
2023-05-05T03:50:51.863Z,5.33
2023-05-05T03:53:21.666Z,5.73
2023-05-05T03:55:49.770Z,5.57
2023-05-05T03:58:17.209Z,5.63
2023-05-05T04:00:44.704Z,5.93
2023-05-05T04:03:12.460Z,6.10
2023-05-05T04:05:40.084Z,5.43
2023-05-05T04:08:07.599Z,5.77
2023-05-05T04:10:35.549Z,5.63
2023-05-05T04:13:02.957Z,5.30
2023-05-05T04:15:32.306Z,5.40
2023-05-05T04:17:59.756Z,5.37
2023-05-05T04:20:27.412Z,5.57
2023-05-05T04:22:56.471Z,5.80
2023-05-05T04:25:24.749Z,6.17
2023-05-05T04:27:52.190Z,5.90
2023-05-05T04:30:19.700Z,5.30
2023-05-05T04:32:47.107Z,5.10
2023-05-05T04:35:15.220Z,5.43
2023-05-05T04:37:43.650Z,4.90
2023-05-05T04:40:11.399Z,5.20
2023-05-05T04:42:39.973Z,4.97
2023-05-05T04:45:08.813Z,5.40
2023-05-05T04:47:40.613Z,6.07
2023-05-05T04:50:09.299Z,5.20
2023-05-05T04:52:36.920Z,5.50
2023-05-05T04:55:04.864Z,4.90
2023-05-05T04:57:34.007Z,4.93
2023-05-05T05:00:04.939Z,5.77
2023-05-05T05:02:33.250Z,5.43
2023-05-05T05:05:00.735Z,6.13
2023-05-05T05:07:28.225Z,5.63
2023-05-05T05:09:55.650Z,5.70
2023-05-05T05:12:23.098Z,5.37
2023-05-05T05:14:51.801Z,5.33
2023-05-05T05:17:20.779Z,5.93
2023-05-05T05:19:48.216Z,5.97
2023-05-05T05:22:15.501Z,5.60
2023-05-05T05:24:44.054Z,6.37
2023-05-05T05:27:12.444Z,6.67
2023-05-05T05:29:43.857Z,6.60
2023-05-05T05:32:11.420Z,6.77
2023-05-05T05:34:45.000Z,7.20
2023-05-05T05:37:13.242Z,6.77
2023-05-05T05:39:43.209Z,7.37
2023-05-05T05:42:12.962Z,7.00
2023-05-05T05:44:40.549Z,7.13
2023-05-05T05:47:07.991Z,7.30
2023-05-05T05:49:35.399Z,7.27
2023-05-05T05:52:02.733Z,6.33
2023-05-05T05:54:30.279Z,6.93
2023-05-05T05:56:57.639Z,7.63
2023-05-05T05:59:24.926Z,7.80
2023-05-05T06:01:52.518Z,7.40
2023-05-05T06:04:20.249Z,7.97
2023-05-05T06:06:47.590Z,7.43
2023-05-05T06:09:15.029Z,7.90
2023-05-05T06:11:42.992Z,8.90
2023-05-05T06:14:10.775Z,7.83
2023-05-05T06:16:38.155Z,7.83
2023-05-05T06:19:10.857Z,7.93
2023-05-05T06:21:38.856Z,8.23
2023-05-05T06:24:06.569Z,8.63
2023-05-05T06:26:36.070Z,8.50
2023-05-05T06:29:03.368Z,8.23
2023-05-05T06:31:30.795Z,8.40
2023-05-05T06:33:58.073Z,8.83
2023-05-05T06:36:25.469Z,8.73
2023-05-05T06:38:52.927Z,9.37
2023-05-05T06:41:20.430Z,9.00
2023-05-05T06:43:47.702Z,9.03
2023-05-05T06:46:15.371Z,10.00
2023-05-05T06:48:42.671Z,8.90
2023-05-05T06:51:10.356Z,9.63
2023-05-05T06:53:37.844Z,9.47
2023-05-05T06:56:05.599Z,10.30
2023-05-05T06:58:33.179Z,9.83
2023-05-05T07:01:00.647Z,9.53
2023-05-05T07:03:28.523Z,10.90
2023-05-05T07:05:56.119Z,10.40
2023-05-05T07:08:23.789Z,9.80
2023-05-05T07:10:51.438Z,10.47
2023-05-05T07:13:18.807Z,11.17
2023-05-05T07:15:47.068Z,10.73
2023-05-05T07:18:16.204Z,11.33
2023-05-05T07:20:46.886Z,12.97
2023-05-05T07:23:14.332Z,12.23
2023-05-05T07:25:41.708Z,12.27
2023-05-05T07:28:09.186Z,12.53
2023-05-05T07:30:36.564Z,11.90
2023-05-05T07:33:04.402Z,12.17
2023-05-05T07:35:31.805Z,13.60
2023-05-05T07:37:59.061Z,12.57
2023-05-05T07:40:26.733Z,11.90
2023-05-05T07:42:54.030Z,12.40
2023-05-05T07:45:21.593Z,12.43
2023-05-05T07:47:49.049Z,12.73
2023-05-05T07:50:16.388Z,12.53
2023-05-05T07:52:50.028Z,12.70
2023-05-05T07:55:23.720Z,12.67
2023-05-05T07:57:51.622Z,12.10
2023-05-05T08:00:19.525Z,11.47
2023-05-05T08:02:48.085Z,12.40
2023-05-05T08:05:16.483Z,12.70
2023-05-05T08:07:44.033Z,13.03
2023-05-05T08:10:12.465Z,13.73
2023-05-05T08:12:40.411Z,12.90
2023-05-05T08:15:08.973Z,13.27
2023-05-05T08:17:47.958Z,12.57
2023-05-05T08:20:17.136Z,13.73
2023-05-05T08:22:45.138Z,13.70
2023-05-05T08:25:13.771Z,12.97
2023-05-05T08:27:42.869Z,13.43
2023-05-05T08:30:10.916Z,13.00
2023-05-05T08:32:38.671Z,13.37
2023-05-05T08:35:07.451Z,12.90
2023-05-05T08:37:35.286Z,12.70
2023-05-05T08:40:02.784Z,13.00
2023-05-05T08:42:38.107Z,13.93
2023-05-05T08:45:11.498Z,12.07
2023-05-05T08:47:40.016Z,13.10
2023-05-05T08:50:11.030Z,13.37
2023-05-05T08:52:42.041Z,13.43
2023-05-05T08:55:13.521Z,11.87
2023-05-05T08:57:51.977Z,11.20
2023-05-05T09:00:20.882Z,10.27
2023-05-05T09:02:48.876Z,11.20
2023-05-05T09:05:16.812Z,10.57
2023-05-05T09:07:44.528Z,10.87
2023-05-05T09:10:12.531Z,10.43
2023-05-05T09:12:43.261Z,11.07
2023-05-05T09:15:12.208Z,11.03
2023-05-05T09:17:40.404Z,10.67
2023-05-05T09:20:08.934Z,11.87
2023-05-05T09:22:44.190Z,11.40
2023-05-05T09:25:13.106Z,10.80
2023-05-05T09:27:46.399Z,10.40
2023-05-05T09:30:25.059Z,11.07
2023-05-05T09:32:54.485Z,11.33
2023-05-05T09:35:23.178Z,9.97
2023-05-05T09:37:50.636Z,10.87
2023-05-05T09:40:20.149Z,10.60
2023-05-05T09:42:47.715Z,11.17
2023-05-05T09:45:18.054Z,9.40
2023-05-05T09:47:49.180Z,9.07
2023-05-05T09:50:19.233Z,9.17
2023-05-05T09:53:01.118Z,7.83
2023-05-05T09:55:29.050Z,8.97
2023-05-05T09:57:56.631Z,8.37
2023-05-05T10:00:38.817Z,8.20
2023-05-05T10:03:06.786Z,7.93
2023-05-05T10:05:48.357Z,9.57
2023-05-05T10:08:16.225Z,8.47
2023-05-05T10:10:54.456Z,7.70
2023-05-05T10:13:23.768Z,7.47
2023-05-05T10:15:53.344Z,7.40
2023-05-05T10:18:26.149Z,7.80
2023-05-05T10:21:00.712Z,7.43
2023-05-05T10:23:47.947Z,7.70
2023-05-05T10:26:16.833Z,7.63
2023-05-05T10:28:51.354Z,7.03
2023-05-05T10:31:26.521Z,7.77
2023-05-05T10:34:03.414Z,8.13
2023-05-05T10:36:31.793Z,7.73
2023-05-05T10:39:00.620Z,7.60
2023-05-05T10:41:30.831Z,7.63
2023-05-05T10:44:00.439Z,7.50
2023-05-05T10:46:29.529Z,6.80
2023-05-05T10:49:19.491Z,7.00
2023-05-05T10:51:55.743Z,6.90
2023-05-05T10:54:38.551Z,6.77
2023-05-05T10:57:09.660Z,5.83
2023-05-05T10:59:37.104Z,5.90
2023-05-05T11:02:27.433Z,6.70
2023-05-05T11:05:06.951Z,5.80
2023-05-05T11:07:34.569Z,5.90
2023-05-05T11:10:06.922Z,5.83
2023-05-05T11:12:55.023Z,5.50
2023-05-05T11:15:28.879Z,4.90
2023-05-05T11:18:02.652Z,4.40
2023-05-05T11:20:35.874Z,4.20
2023-05-05T11:23:03.262Z,4.70
2023-05-05T11:25:41.264Z,4.20
2023-05-05T11:28:13.966Z,4.17
2023-05-05T11:30:57.551Z,4.10
2023-05-05T11:33:39.330Z,4.10
2023-05-05T11:36:14.203Z,3.73
2023-05-05T11:39:02.009Z,3.67
2023-05-05T11:41:32.156Z,3.57
2023-05-05T11:44:11.608Z,4.00
2023-05-05T11:47:02.542Z,3.40
2023-05-05T11:49:32.075Z,4.10
2023-05-05T11:52:11.099Z,3.67
2023-05-05T11:54:48.968Z,3.97
2023-05-05T11:57:21.073Z,3.50
2023-05-05T12:00:01.278Z,3.63
2023-05-05T12:02:30.521Z,3.60
2023-05-05T12:04:59.230Z,3.97
2023-05-05T12:07:30.145Z,3.30
2023-05-05T12:09:57.811Z,3.27
2023-05-05T12:12:43.255Z,3.20
2023-05-05T12:15:13.352Z,3.27
2023-05-05T12:17:42.711Z,3.00
2023-05-05T12:20:12.273Z,2.87
2023-05-05T12:22:40.451Z,3.07
2023-05-05T12:25:08.455Z,2.70
2023-05-05T12:27:35.912Z,3.10
2023-05-05T12:30:17.341Z,2.80
2023-05-05T12:32:46.121Z,3.13
2023-05-05T12:35:14.456Z,2.90
2023-05-05T12:37:43.124Z,2.80
2023-05-05T12:40:43.670Z,2.70
2023-05-05T12:43:30.831Z,2.67
2023-05-05T12:46:10.391Z,2.70
2023-05-05T12:48:40.003Z,2.63
2023-05-05T12:51:23.071Z,2.47
2023-05-05T12:54:02.155Z,2.57
2023-05-05T12:56:34.080Z,2.37
2023-05-05T12:59:03.895Z,2.67
2023-05-05T13:01:32.251Z,2.80
2023-05-05T13:04:13.255Z,2.70
2023-05-05T13:06:42.790Z,2.80
2023-05-05T13:09:26.423Z,2.40
2023-05-05T13:11:54.923Z,2.30
2023-05-05T13:14:23.236Z,1.73
2023-05-05T13:16:51.120Z,2.40
2023-05-05T13:19:18.584Z,2.50
2023-05-05T13:21:45.909Z,2.20
2023-05-05T13:24:28.056Z,2.47
2023-05-05T13:27:00.497Z,2.40
2023-05-05T13:29:31.147Z,2.23
2023-05-05T13:31:59.458Z,2.10
2023-05-05T13:34:26.892Z,2.10
2023-05-05T13:36:54.281Z,2.30
2023-05-05T13:39:22.163Z,2.10
2023-05-05T13:41:50.449Z,1.93
2023-05-05T13:44:18.068Z,2.13
2023-05-05T13:46:45.519Z,1.97
2023-05-05T13:49:13.073Z,2.20
2023-05-05T13:51:40.430Z,2.30
2023-05-05T13:54:07.879Z,2.23
2023-05-05T13:56:35.316Z,2.17
2023-05-05T13:59:02.703Z,2.00
2023-05-05T14:01:30.659Z,2.30
2023-05-05T14:03:58.364Z,1.80
2023-05-05T14:06:26.522Z,2.03
2023-05-05T14:08:53.930Z,2.00
2023-05-05T14:11:21.360Z,2.00
2023-05-05T14:13:49.014Z,1.73
2023-05-05T14:16:16.517Z,2.20
2023-05-05T14:18:43.877Z,2.17
2023-05-05T14:21:11.407Z,2.33
2023-05-05T14:23:38.806Z,2.20
2023-05-05T14:26:09.120Z,1.97
2023-05-05T14:28:38.197Z,1.97
2023-05-05T14:31:06.007Z,2.10
2023-05-05T14:33:33.445Z,2.30
2023-05-05T14:36:01.374Z,2.00
2023-05-05T14:38:31.138Z,1.97
2023-05-05T14:40:58.932Z,1.93
2023-05-05T14:43:28.794Z,1.70
2023-05-05T14:45:58.646Z,2.03
2023-05-05T14:48:26.436Z,2.00
2023-05-05T14:50:53.740Z,2.07
2023-05-05T14:53:21.141Z,1.80
2023-05-05T14:55:48.828Z,1.77
2023-05-05T14:58:18.999Z,1.97
2023-05-05T15:00:46.332Z,1.77
2023-05-05T15:03:13.714Z,2.00
2023-05-05T15:05:41.073Z,1.60
2023-05-05T15:08:08.499Z,1.70
2023-05-05T15:10:36.232Z,1.77
2023-05-05T15:13:03.728Z,2.00
2023-05-05T15:15:31.380Z,2.00
2023-05-05T15:17:58.649Z,1.93
2023-05-05T15:20:26.507Z,1.90
2023-05-05T15:22:55.058Z,1.93
2023-05-05T15:25:22.901Z,1.90
2023-05-05T15:27:50.357Z,1.90
2023-05-05T15:30:17.960Z,1.93
2023-05-05T15:32:45.482Z,2.03
2023-05-05T15:35:13.343Z,2.00
2023-05-05T15:37:42.456Z,1.93
2023-05-05T15:40:10.667Z,2.27
2023-05-05T15:42:40.700Z,1.70
2023-05-05T15:45:12.078Z,2.20
2023-05-05T15:47:41.785Z,2.07
2023-05-05T15:50:09.908Z,2.10
2023-05-05T15:52:40.068Z,1.77
2023-05-05T15:55:08.657Z,2.00
2023-05-05T15:57:36.478Z,2.03
2023-05-05T16:00:04.743Z,2.20
2023-05-05T16:02:34.710Z,2.00
2023-05-05T16:05:02.494Z,1.90
2023-05-05T16:07:29.872Z,2.00
2023-05-05T16:09:57.403Z,1.93
2023-05-05T16:12:24.878Z,2.00
2023-05-05T16:14:53.337Z,1.80
2023-05-05T16:17:22.236Z,2.53
2023-05-05T16:19:50.103Z,2.07
2023-05-05T16:22:17.637Z,2.00
2023-05-05T16:24:45.107Z,1.83
2023-05-05T16:27:12.613Z,2.00
2023-05-05T16:29:40.142Z,2.23
2023-05-05T16:32:07.422Z,1.90
2023-05-05T16:34:34.947Z,2.00
2023-05-05T16:37:02.294Z,2.20
2023-05-05T16:39:29.568Z,2.10
2023-05-05T16:41:56.821Z,1.90
2023-05-05T16:44:24.128Z,2.33
2023-05-05T16:46:51.462Z,1.77
2023-05-05T16:49:19.276Z,2.03
2023-05-05T16:51:46.576Z,2.67
2023-05-05T16:54:13.813Z,1.90
2023-05-05T16:56:41.109Z,3.53
2023-05-05T16:59:08.471Z,3.27
2023-05-05T17:01:36.087Z,2.60
2023-05-05T17:04:03.410Z,2.27
2023-05-05T17:06:32.145Z,2.70
2023-05-05T17:08:59.671Z,1.80
2023-05-05T17:11:27.162Z,2.07
2023-05-05T17:13:54.380Z,1.90
2023-05-05T17:16:21.708Z,1.90
2023-05-05T17:18:49.276Z,1.83
2023-05-05T17:21:16.626Z,1.97
2023-05-05T17:23:43.862Z,1.90
2023-05-05T17:26:11.560Z,1.70
2023-05-05T17:28:38.778Z,1.83
2023-05-05T17:31:06.659Z,1.90
2023-05-05T17:33:34.036Z,1.80
2023-05-05T17:36:01.571Z,1.80
2023-05-05T17:38:28.812Z,2.10
2023-05-05T17:40:56.081Z,2.33
2023-05-05T17:43:23.553Z,2.10
2023-05-05T17:45:50.839Z,2.10
2023-05-05T17:48:18.187Z,1.90
2023-05-05T17:50:47.078Z,2.10
2023-05-05T17:53:14.347Z,1.90
2023-05-05T17:55:45.653Z,2.20
2023-05-05T17:58:12.995Z,2.87
2023-05-05T18:00:40.281Z,2.77
2023-05-05T18:03:07.674Z,2.70
2023-05-05T18:05:35.390Z,2.47
2023-05-05T18:08:02.683Z,2.83
2023-05-05T18:10:30.080Z,3.20
2023-05-05T18:12:57.536Z,3.03
2023-05-05T18:15:25.198Z,3.37
2023-05-05T18:17:53.897Z,3.83
2023-05-05T18:20:21.323Z,4.03
2023-05-05T18:22:48.770Z,3.13
2023-05-05T18:25:16.260Z,3.03
2023-05-05T18:27:44.540Z,2.90
2023-05-05T18:30:12.264Z,3.53
2023-05-05T18:32:39.615Z,3.30
2023-05-05T18:35:08.012Z,3.07
2023-05-05T18:37:35.687Z,3.10
2023-05-05T18:40:03.267Z,3.30
2023-05-05T18:42:30.568Z,3.00
2023-05-05T18:44:57.926Z,3.57
2023-05-05T18:47:26.219Z,3.17
2023-05-05T18:49:53.523Z,2.80
2023-05-05T18:52:20.963Z,3.00
2023-05-05T18:54:48.368Z,3.10
2023-05-05T18:57:15.664Z,2.97
2023-05-05T18:59:42.918Z,3.03
2023-05-05T19:02:10.499Z,3.00
2023-05-05T19:04:38.339Z,3.37
2023-05-05T19:07:06.010Z,3.37
2023-05-05T19:09:33.583Z,3.30
2023-05-05T19:12:02.844Z,3.00
2023-05-05T19:14:30.273Z,3.40
2023-05-05T19:16:59.079Z,2.90
2023-05-05T19:19:26.631Z,3.03
2023-05-05T19:21:54.827Z,3.00
2023-05-05T19:24:22.113Z,3.23
2023-05-05T19:26:49.467Z,2.70
2023-05-05T19:29:17.283Z,3.10
2023-05-05T19:31:44.738Z,3.10
2023-05-05T19:34:12.090Z,3.00
2023-05-05T19:36:39.534Z,3.17
2023-05-05T19:39:06.959Z,2.97
2023-05-05T19:41:35.505Z,2.87
2023-05-05T19:44:03.035Z,3.47
2023-05-05T19:46:30.495Z,3.13
2023-05-05T19:48:57.837Z,3.30
2023-05-05T19:51:25.393Z,3.10
2023-05-05T19:53:56.234Z,3.00
2023-05-05T19:56:24.230Z,3.00
2023-05-05T19:59:03.724Z,3.13
2023-05-05T20:01:31.268Z,3.13
2023-05-05T20:04:03.732Z,2.73
2023-05-05T20:06:32.164Z,3.30
2023-05-05T20:09:00.385Z,3.03
2023-05-05T20:11:28.258Z,3.33
2023-05-05T20:13:56.445Z,3.00
2023-05-05T20:16:23.981Z,2.80
2023-05-05T20:18:51.507Z,3.00
2023-05-05T20:21:18.928Z,2.90
2023-05-05T20:23:46.818Z,3.27
2023-05-05T20:26:14.089Z,3.20
2023-05-05T20:28:44.810Z,3.20
2023-05-05T20:31:14.126Z,3.10
2023-05-05T20:33:41.451Z,3.40
2023-05-05T20:36:08.896Z,3.00
2023-05-05T20:38:36.590Z,3.30
2023-05-05T20:41:03.953Z,3.40
2023-05-05T20:43:31.287Z,3.93
2023-05-05T20:45:58.618Z,3.90
2023-05-05T20:48:25.983Z,4.07
2023-05-05T20:50:53.213Z,3.97
2023-05-05T20:53:21.346Z,3.90
2023-05-05T20:55:50.121Z,4.27
2023-05-05T20:58:17.767Z,4.60
2023-05-05T21:00:45.227Z,4.53
2023-05-05T21:03:12.602Z,4.73
2023-05-05T21:05:41.319Z,4.60
2023-05-05T21:08:08.684Z,4.70
2023-05-05T21:10:36.323Z,4.77
2023-05-05T21:13:03.953Z,4.97
2023-05-05T21:15:31.913Z,5.33
2023-05-05T21:17:59.365Z,5.37
2023-05-05T21:20:27.086Z,5.40
2023-05-05T21:22:56.203Z,5.67
2023-05-05T21:25:24.236Z,6.57
2023-05-05T21:27:51.874Z,6.83
2023-05-05T21:30:19.128Z,5.67
2023-05-05T21:32:46.854Z,6.43
2023-05-05T21:35:14.567Z,6.50
2023-05-05T21:37:41.976Z,6.97
2023-05-05T21:40:13.319Z,7.13
2023-05-05T21:42:41.856Z,7.37
2023-05-05T21:45:11.260Z,6.70
2023-05-05T21:47:38.798Z,7.27
2023-05-05T21:50:07.290Z,7.73
2023-05-05T21:52:34.913Z,8.03
2023-05-05T21:55:02.664Z,7.60
2023-05-05T21:57:30.073Z,7.87
2023-05-05T21:59:57.445Z,8.03
2023-05-05T22:02:24.893Z,7.97
2023-05-05T22:04:52.333Z,7.97
2023-05-05T22:07:19.646Z,8.27
2023-05-05T22:09:47.005Z,7.97
2023-05-05T22:12:14.360Z,8.00
2023-05-05T22:14:41.652Z,8.10
2023-05-05T22:17:08.996Z,7.77
2023-05-05T22:19:36.337Z,7.77
2023-05-05T22:22:03.692Z,8.00
2023-05-05T22:24:31.521Z,8.10
2023-05-05T22:26:58.845Z,8.17
2023-05-05T22:29:26.373Z,7.53
2023-05-05T22:31:53.936Z,7.37
2023-05-05T22:34:22.117Z,8.17
2023-05-05T22:36:50.040Z,7.57
2023-05-05T22:39:18.549Z,8.23
2023-05-05T22:41:46.558Z,7.57
2023-05-05T22:44:14.064Z,7.27
2023-05-05T22:46:42.211Z,7.43
2023-05-05T22:49:09.994Z,7.80
2023-05-05T22:51:37.902Z,7.57
2023-05-05T22:54:05.475Z,8.00
2023-05-05T22:56:32.921Z,7.80
2023-05-05T22:59:00.481Z,7.30
2023-05-05T23:01:28.025Z,7.37
2023-05-05T23:03:56.524Z,7.03
2023-05-05T23:06:23.903Z,7.63
2023-05-05T23:08:51.291Z,6.73
2023-05-05T23:11:18.571Z,6.80
2023-05-05T23:13:46.035Z,6.93
2023-05-05T23:16:13.469Z,6.97
2023-05-05T23:18:40.850Z,7.60
2023-05-05T23:21:08.253Z,6.73
2023-05-05T23:23:35.575Z,8.83
2023-05-05T23:26:02.961Z,8.77
2023-05-05T23:28:30.291Z,8.03
2023-05-05T23:30:57.584Z,8.73
2023-05-05T23:33:24.912Z,8.60
2023-05-05T23:35:52.205Z,8.27
2023-05-05T23:38:19.497Z,7.90
2023-05-05T23:40:47.198Z,9.10
2023-05-05T23:43:14.573Z,8.57
2023-05-05T23:45:42.495Z,8.40
2023-05-05T23:48:11.664Z,7.90
2023-05-05T23:50:39.470Z,8.10
2023-05-05T23:53:06.827Z,8.57
2023-05-05T23:55:34.120Z,7.63
2023-05-05T23:58:01.650Z,7.60
